sensor_id;sensor_type;location;lat;lon;timestamp;pressure;altitude;pressure_sealevel;temperature;humidity
57024;BME280;42916;54.346;18.562;2022-10-17T00:00:47;101153.88;;;10.95;100.00
57024;BME280;42916;54.346;18.562;2022-10-17T00:03:29;101145.54;;;10.92;100.00
57024;BME280;42916;54.346;18.562;2022-10-17T00:05:56;101150.14;;;10.88;100.00
57024;BME280;42916;54.346;18.562;2022-10-17T00:08:22;101155.71;;;10.86;100.00
57024;BME280;42916;54.346;18.562;2022-10-17T00:10:57;101161.04;;;10.81;100.00
57024;BME280;42916;54.346;18.562;2022-10-17T00:13:25;101164.59;;;10.72;100.00
57024;BME280;42916;54.346;18.562;2022-10-17T00:15:52;101158.73;;;10.63;100.00
57024;BME280;42916;54.346;18.562;2022-10-17T00:18:19;101149.10;;;10.54;100.00
57024;BME280;42916;54.346;18.562;2022-10-17T00:20:46;101143.66;;;10.45;100.00
57024;BME280;42916;54.346;18.562;2022-10-17T00:23:12;101151.25;;;10.39;100.00
57024;BME280;42916;54.346;18.562;2022-10-17T00:25:39;101157.25;;;10.35;100.00
57024;BME280;42916;54.346;18.562;2022-10-17T00:28:10;101161.02;;;10.32;100.00
57024;BME280;42916;54.346;18.562;2022-10-17T00:30:38;101156.57;;;10.29;100.00
57024;BME280;42916;54.346;18.562;2022-10-17T00:33:05;101156.90;;;10.24;100.00
57024;BME280;42916;54.346;18.562;2022-10-17T00:35:32;101153.29;;;10.17;100.00
57024;BME280;42916;54.346;18.562;2022-10-17T00:37:59;101158.28;;;10.14;100.00
57024;BME280;42916;54.346;18.562;2022-10-17T00:40:26;101164.48;;;10.12;100.00
57024;BME280;42916;54.346;18.562;2022-10-17T00:42:52;101162.18;;;10.11;100.00
57024;BME280;42916;54.346;18.562;2022-10-17T00:48:02;101169.17;;;10.02;100.00
57024;BME280;42916;54.346;18.562;2022-10-17T00:50:30;101173.60;;;9.94;100.00
57024;BME280;42916;54.346;18.562;2022-10-17T00:53:00;101174.33;;;9.87;100.00
57024;BME280;42916;54.346;18.562;2022-10-17T00:55:31;101171.96;;;9.79;100.00
57024;BME280;42916;54.346;18.562;2022-10-17T00:58:02;101170.27;;;9.70;100.00
57024;BME280;42916;54.346;18.562;2022-10-17T01:00:29;101178.27;;;9.63;100.00
57024;BME280;42916;54.346;18.562;2022-10-17T01:02:57;101177.54;;;9.58;100.00
57024;BME280;42916;54.346;18.562;2022-10-17T01:05:25;101183.60;;;9.57;100.00
57024;BME280;42916;54.346;18.562;2022-10-17T01:07:52;101183.95;;;9.54;100.00
57024;BME280;42916;54.346;18.562;2022-10-17T01:10:20;101186.65;;;9.52;100.00
57024;BME280;42916;54.346;18.562;2022-10-17T01:13:12;101186.50;;;9.50;100.00
57024;BME280;42916;54.346;18.562;2022-10-17T01:21:29;101193.94;;;9.33;100.00
57024;BME280;42916;54.346;18.562;2022-10-17T01:27:24;101196.10;;;9.19;100.00
57024;BME280;42916;54.346;18.562;2022-10-17T01:30:09;101211.36;;;9.10;100.00
57024;BME280;42916;54.346;18.562;2022-10-17T01:35:35;101217.40;;;9.00;100.00
57024;BME280;42916;54.346;18.562;2022-10-17T01:38:06;101208.54;;;8.96;100.00
57024;BME280;42916;54.346;18.562;2022-10-17T01:40:39;101201.00;;;8.96;100.00
57024;BME280;42916;54.346;18.562;2022-10-17T01:45:48;101201.05;;;8.94;100.00
57024;BME280;42916;54.346;18.562;2022-10-17T01:48:19;101202.44;;;8.97;100.00
57024;BME280;42916;54.346;18.562;2022-10-17T01:50:52;101210.85;;;8.95;100.00
57024;BME280;42916;54.346;18.562;2022-10-17T01:53:29;101215.89;;;8.93;100.00
57024;BME280;42916;54.346;18.562;2022-10-17T01:55:59;101220.81;;;8.89;100.00
57024;BME280;42916;54.346;18.562;2022-10-17T01:58:31;101221.90;;;8.84;100.00
57024;BME280;42916;54.346;18.562;2022-10-17T02:01:02;101221.04;;;8.82;100.00
57024;BME280;42916;54.346;18.562;2022-10-17T02:03:33;101226.82;;;8.85;100.00
57024;BME280;42916;54.346;18.562;2022-10-17T02:06:01;101232.17;;;8.83;100.00
57024;BME280;42916;54.346;18.562;2022-10-17T02:08:40;101231.64;;;8.78;100.00
57024;BME280;42916;54.346;18.562;2022-10-17T02:11:14;101235.21;;;8.76;100.00
57024;BME280;42916;54.346;18.562;2022-10-17T02:14:11;101238.56;;;8.77;100.00
57024;BME280;42916;54.346;18.562;2022-10-17T02:20:21;101240.02;;;8.83;100.00
57024;BME280;42916;54.346;18.562;2022-10-17T02:25:35;101226.88;;;8.87;100.00
57024;BME280;42916;54.346;18.562;2022-10-17T02:28:25;101231.74;;;8.85;100.00
57024;BME280;42916;54.346;18.562;2022-10-17T02:31:07;101240.98;;;8.82;100.00
57024;BME280;42916;54.346;18.562;2022-10-17T02:33:40;101247.52;;;8.76;100.00
57024;BME280;42916;54.346;18.562;2022-10-17T02:36:19;101249.14;;;8.71;100.00
57024;BME280;42916;54.346;18.562;2022-10-17T02:38:49;101249.19;;;8.65;100.00
57024;BME280;42916;54.346;18.562;2022-10-17T02:41:18;101251.77;;;8.62;100.00
57024;BME280;42916;54.346;18.562;2022-10-17T02:43:47;101253.66;;;8.59;100.00
57024;BME280;42916;54.346;18.562;2022-10-17T02:46:18;101253.42;;;8.57;100.00
57024;BME280;42916;54.346;18.562;2022-10-17T02:48:50;101258.90;;;8.57;100.00
57024;BME280;42916;54.346;18.562;2022-10-17T02:56:45;101265.02;;;8.52;100.00
57024;BME280;42916;54.346;18.562;2022-10-17T02:59:16;101274.39;;;8.55;100.00
57024;BME280;42916;54.346;18.562;2022-10-17T03:01:47;101278.95;;;8.59;100.00
57024;BME280;42916;54.346;18.562;2022-10-17T03:04:14;101283.48;;;8.64;100.00
57024;BME280;42916;54.346;18.562;2022-10-17T03:06:43;101287.51;;;8.69;100.00
57024;BME280;42916;54.346;18.562;2022-10-17T03:09:11;101286.80;;;8.74;100.00
57024;BME280;42916;54.346;18.562;2022-10-17T03:11:37;101281.19;;;8.78;100.00
57024;BME280;42916;54.346;18.562;2022-10-17T03:14:06;101282.25;;;8.81;100.00
57024;BME280;42916;54.346;18.562;2022-10-17T03:16:33;101283.16;;;8.80;100.00
57024;BME280;42916;54.346;18.562;2022-10-17T03:18:59;101291.35;;;8.75;100.00
57024;BME280;42916;54.346;18.562;2022-10-17T03:21:26;101294.38;;;8.76;100.00
57024;BME280;42916;54.346;18.562;2022-10-17T03:23:52;101296.27;;;8.76;100.00
57024;BME280;42916;54.346;18.562;2022-10-17T03:26:20;101295.98;;;8.76;100.00
57024;BME280;42916;54.346;18.562;2022-10-17T03:28:47;101290.09;;;8.75;100.00
57024;BME280;42916;54.346;18.562;2022-10-17T03:31:15;101287.31;;;8.78;100.00
57024;BME280;42916;54.346;18.562;2022-10-17T03:33:43;101282.57;;;8.81;100.00
57024;BME280;42916;54.346;18.562;2022-10-17T03:36:12;101282.66;;;8.80;100.00
57024;BME280;42916;54.346;18.562;2022-10-17T03:38:40;101283.16;;;8.75;100.00
57024;BME280;42916;54.346;18.562;2022-10-17T03:41:08;101288.63;;;8.77;100.00
57024;BME280;42916;54.346;18.562;2022-10-17T03:43:36;101280.36;;;8.80;100.00
57024;BME280;42916;54.346;18.562;2022-10-17T03:46:02;101283.77;;;8.83;100.00
57024;BME280;42916;54.346;18.562;2022-10-17T03:48:30;101288.17;;;8.82;100.00
57024;BME280;42916;54.346;18.562;2022-10-17T03:51:01;101291.71;;;8.82;100.00
57024;BME280;42916;54.346;18.562;2022-10-17T03:53:29;101289.02;;;8.84;100.00
57024;BME280;42916;54.346;18.562;2022-10-17T03:56:07;101294.95;;;8.89;100.00
57024;BME280;42916;54.346;18.562;2022-10-17T03:58:33;101295.14;;;8.95;100.00
57024;BME280;42916;54.346;18.562;2022-10-17T04:01:05;101288.74;;;9.01;100.00
57024;BME280;42916;54.346;18.562;2022-10-17T04:03:32;101293.08;;;9.06;100.00
57024;BME280;42916;54.346;18.562;2022-10-17T04:05:59;101304.81;;;9.06;100.00
57024;BME280;42916;54.346;18.562;2022-10-17T04:08:27;101320.70;;;9.03;100.00
57024;BME280;42916;54.346;18.562;2022-10-17T04:11:06;101327.31;;;9.05;100.00
57024;BME280;42916;54.346;18.562;2022-10-17T04:13:34;101330.20;;;9.05;100.00
57024;BME280;42916;54.346;18.562;2022-10-17T04:16:05;101330.50;;;9.05;100.00
57024;BME280;42916;54.346;18.562;2022-10-17T04:18:33;101326.79;;;9.04;100.00
57024;BME280;42916;54.346;18.562;2022-10-17T04:21:03;101325.52;;;9.04;100.00
57024;BME280;42916;54.346;18.562;2022-10-17T04:23:31;101319.60;;;9.05;100.00
57024;BME280;42916;54.346;18.562;2022-10-17T04:26:04;101314.88;;;9.07;100.00
57024;BME280;42916;54.346;18.562;2022-10-17T04:28:31;101318.73;;;9.09;100.00
57024;BME280;42916;54.346;18.562;2022-10-17T04:31:06;101320.73;;;9.10;100.00
57024;BME280;42916;54.346;18.562;2022-10-17T04:33:38;101316.66;;;9.12;100.00
57024;BME280;42916;54.346;18.562;2022-10-17T04:36:09;101315.64;;;9.14;100.00
57024;BME280;42916;54.346;18.562;2022-10-17T04:38:37;101316.46;;;9.14;100.00
57024;BME280;42916;54.346;18.562;2022-10-17T04:41:08;101318.94;;;9.14;100.00
57024;BME280;42916;54.346;18.562;2022-10-17T04:43:37;101327.13;;;9.13;100.00
57024;BME280;42916;54.346;18.562;2022-10-17T04:46:08;101325.31;;;9.14;100.00
57024;BME280;42916;54.346;18.562;2022-10-17T04:48:37;101321.24;;;9.18;100.00
57024;BME280;42916;54.346;18.562;2022-10-17T04:51:07;101328.48;;;9.20;100.00
57024;BME280;42916;54.346;18.562;2022-10-17T04:53:41;101330.73;;;9.22;100.00
57024;BME280;42916;54.346;18.562;2022-10-17T04:56:12;101335.13;;;9.26;100.00
57024;BME280;42916;54.346;18.562;2022-10-17T04:58:41;101336.16;;;9.31;100.00
57024;BME280;42916;54.346;18.562;2022-10-17T05:01:10;101341.55;;;9.35;100.00
57024;BME280;42916;54.346;18.562;2022-10-17T05:03:39;101341.05;;;9.38;100.00
57024;BME280;42916;54.346;18.562;2022-10-17T05:06:08;101348.23;;;9.39;100.00
57024;BME280;42916;54.346;18.562;2022-10-17T05:08:36;101351.44;;;9.39;100.00
57024;BME280;42916;54.346;18.562;2022-10-17T05:11:04;101345.45;;;9.41;100.00
57024;BME280;42916;54.346;18.562;2022-10-17T05:13:32;101349.83;;;9.47;100.00
57024;BME280;42916;54.346;18.562;2022-10-17T05:15:59;101348.27;;;9.51;100.00
57024;BME280;42916;54.346;18.562;2022-10-17T05:18:27;101347.70;;;9.55;100.00
57024;BME280;42916;54.346;18.562;2022-10-17T05:20:55;101345.61;;;9.59;100.00
57024;BME280;42916;54.346;18.562;2022-10-17T05:23:23;101347.69;;;9.64;100.00
57024;BME280;42916;54.346;18.562;2022-10-17T05:25:54;101352.11;;;9.68;100.00
57024;BME280;42916;54.346;18.562;2022-10-17T05:28:23;101355.50;;;9.71;100.00
57024;BME280;42916;54.346;18.562;2022-10-17T05:30:51;101358.95;;;9.73;100.00
57024;BME280;42916;54.346;18.562;2022-10-17T05:33:18;101364.53;;;9.74;100.00
57024;BME280;42916;54.346;18.562;2022-10-17T05:35:45;101358.54;;;9.76;100.00
57024;BME280;42916;54.346;18.562;2022-10-17T05:38:11;101358.75;;;9.77;100.00
57024;BME280;42916;54.346;18.562;2022-10-17T05:40:39;101360.40;;;9.78;100.00
57024;BME280;42916;54.346;18.562;2022-10-17T05:43:06;101365.84;;;9.80;100.00
57024;BME280;42916;54.346;18.562;2022-10-17T05:45:33;101364.33;;;9.82;100.00
57024;BME280;42916;54.346;18.562;2022-10-17T05:48:00;101370.86;;;9.85;100.00
57024;BME280;42916;54.346;18.562;2022-10-17T05:50:27;101370.31;;;9.86;100.00
57024;BME280;42916;54.346;18.562;2022-10-17T05:53:15;101373.30;;;9.88;100.00
57024;BME280;42916;54.346;18.562;2022-10-17T05:55:55;101371.89;;;9.90;100.00
57024;BME280;42916;54.346;18.562;2022-10-17T05:58:21;101379.70;;;9.91;100.00
57024;BME280;42916;54.346;18.562;2022-10-17T06:00:48;101381.98;;;9.91;100.00
57024;BME280;42916;54.346;18.562;2022-10-17T06:03:15;101380.12;;;9.93;100.00
57024;BME280;42916;54.346;18.562;2022-10-17T06:05:42;101382.10;;;9.97;100.00
57024;BME280;42916;54.346;18.562;2022-10-17T06:08:09;101376.64;;;10.00;100.00
57024;BME280;42916;54.346;18.562;2022-10-17T06:10:37;101363.61;;;10.04;100.00
57024;BME280;42916;54.346;18.562;2022-10-17T06:13:04;101363.08;;;10.10;100.00
57024;BME280;42916;54.346;18.562;2022-10-17T06:15:30;101375.70;;;10.14;100.00
57024;BME280;42916;54.346;18.562;2022-10-17T06:18:04;101386.58;;;10.21;100.00
57024;BME280;42916;54.346;18.562;2022-10-17T06:20:32;101385.63;;;10.26;100.00
57024;BME280;42916;54.346;18.562;2022-10-17T06:22:58;101375.41;;;10.30;100.00
57024;BME280;42916;54.346;18.562;2022-10-17T06:25:46;101389.35;;;10.32;100.00
57024;BME280;42916;54.346;18.562;2022-10-17T06:28:13;101399.84;;;10.39;100.00
57024;BME280;42916;54.346;18.562;2022-10-17T06:30:40;101404.16;;;10.45;100.00
57024;BME280;42916;54.346;18.562;2022-10-17T06:33:07;101404.36;;;10.48;100.00
57024;BME280;42916;54.346;18.562;2022-10-17T06:35:34;101403.66;;;10.55;100.00
57024;BME280;42916;54.346;18.562;2022-10-17T06:38:02;101407.45;;;10.64;100.00
57024;BME280;42916;54.346;18.562;2022-10-17T06:40:31;101405.70;;;10.79;100.00
57024;BME280;42916;54.346;18.562;2022-10-17T06:42:57;101413.86;;;10.93;100.00
57024;BME280;42916;54.346;18.562;2022-10-17T06:45:37;101421.82;;;11.12;100.00
57024;BME280;42916;54.346;18.562;2022-10-17T06:48:27;101426.11;;;11.34;100.00
57024;BME280;42916;54.346;18.562;2022-10-17T06:51:12;101428.20;;;11.46;100.00
57024;BME280;42916;54.346;18.562;2022-10-17T06:53:53;101424.55;;;11.63;100.00
57024;BME280;42916;54.346;18.562;2022-10-17T06:56:45;101425.13;;;11.78;100.00
57024;BME280;42916;54.346;18.562;2022-10-17T06:59:36;101423.73;;;11.96;100.00
57024;BME280;42916;54.346;18.562;2022-10-17T07:02:26;101424.45;;;12.14;100.00
57024;BME280;42916;54.346;18.562;2022-10-17T07:04:53;101419.20;;;12.24;100.00
57024;BME280;42916;54.346;18.562;2022-10-17T07:07:21;101421.08;;;12.35;100.00
57024;BME280;42916;54.346;18.562;2022-10-17T07:09:50;101423.14;;;12.46;100.00
57024;BME280;42916;54.346;18.562;2022-10-17T07:12:17;101423.29;;;12.57;100.00
57024;BME280;42916;54.346;18.562;2022-10-17T07:14:45;101430.64;;;12.64;100.00
57024;BME280;42916;54.346;18.562;2022-10-17T07:17:13;101422.90;;;12.68;100.00
57024;BME280;42916;54.346;18.562;2022-10-17T07:19:41;101424.02;;;12.69;100.00
57024;BME280;42916;54.346;18.562;2022-10-17T07:22:10;101434.44;;;12.71;100.00
57024;BME280;42916;54.346;18.562;2022-10-17T07:24:40;101436.52;;;12.74;100.00
57024;BME280;42916;54.346;18.562;2022-10-17T07:27:21;101427.97;;;12.85;100.00
57024;BME280;42916;54.346;18.562;2022-10-17T07:29:47;101428.39;;;12.97;100.00
57024;BME280;42916;54.346;18.562;2022-10-17T07:32:31;101431.05;;;13.14;100.00
57024;BME280;42916;54.346;18.562;2022-10-17T07:34:59;101433.90;;;13.31;100.00
57024;BME280;42916;54.346;18.562;2022-10-17T07:37:25;101427.70;;;13.48;100.00
57024;BME280;42916;54.346;18.562;2022-10-17T07:39:55;101430.41;;;13.65;100.00
57024;BME280;42916;54.346;18.562;2022-10-17T07:42:22;101437.29;;;13.75;100.00
57024;BME280;42916;54.346;18.562;2022-10-17T07:44:50;101444.53;;;13.81;100.00
57024;BME280;42916;54.346;18.562;2022-10-17T07:47:17;101453.10;;;13.83;100.00
57024;BME280;42916;54.346;18.562;2022-10-17T07:49:45;101447.34;;;13.86;100.00
57024;BME280;42916;54.346;18.562;2022-10-17T07:52:13;101451.70;;;13.88;100.00
57024;BME280;42916;54.346;18.562;2022-10-17T07:54:40;101446.96;;;13.90;100.00
57024;BME280;42916;54.346;18.562;2022-10-17T07:57:06;101446.71;;;13.96;100.00
57024;BME280;42916;54.346;18.562;2022-10-17T07:59:36;101446.80;;;14.02;100.00
57024;BME280;42916;54.346;18.562;2022-10-17T08:02:03;101454.57;;;14.10;100.00
57024;BME280;42916;54.346;18.562;2022-10-17T08:04:30;101458.39;;;14.18;100.00
57024;BME280;42916;54.346;18.562;2022-10-17T08:06:56;101458.07;;;14.26;100.00
57024;BME280;42916;54.346;18.562;2022-10-17T08:09:23;101461.48;;;14.34;100.00
57024;BME280;42916;54.346;18.562;2022-10-17T08:11:49;101459.97;;;14.39;100.00
57024;BME280;42916;54.346;18.562;2022-10-17T08:14:16;101452.80;;;14.43;100.00
57024;BME280;42916;54.346;18.562;2022-10-17T08:16:43;101449.55;;;14.46;100.00
57024;BME280;42916;54.346;18.562;2022-10-17T08:19:09;101452.71;;;14.54;100.00
57024;BME280;42916;54.346;18.562;2022-10-17T08:21:37;101453.49;;;14.62;100.00
57024;BME280;42916;54.346;18.562;2022-10-17T08:24:04;101449.84;;;14.69;100.00
57024;BME280;42916;54.346;18.562;2022-10-17T08:26:30;101448.63;;;14.82;100.00
57024;BME280;42916;54.346;18.562;2022-10-17T08:28:57;101445.63;;;14.97;100.00
57024;BME280;42916;54.346;18.562;2022-10-17T08:31:24;101446.48;;;15.12;100.00
57024;BME280;42916;54.346;18.562;2022-10-17T08:33:50;101440.11;;;15.22;100.00
57024;BME280;42916;54.346;18.562;2022-10-17T08:36:18;101439.57;;;15.30;100.00
57024;BME280;42916;54.346;18.562;2022-10-17T08:38:46;101441.96;;;15.40;100.00
57024;BME280;42916;54.346;18.562;2022-10-17T08:41:20;101444.63;;;15.52;100.00
57024;BME280;42916;54.346;18.562;2022-10-17T08:46:17;101435.50;;;15.78;99.78
57024;BME280;42916;54.346;18.562;2022-10-17T08:48:45;101433.75;;;15.87;99.37
57024;BME280;42916;54.346;18.562;2022-10-17T08:51:18;101428.17;;;15.92;98.90
57024;BME280;42916;54.346;18.562;2022-10-17T08:53:54;101428.07;;;15.92;97.87
57024;BME280;42916;54.346;18.562;2022-10-17T08:56:25;101430.11;;;15.83;95.84
57024;BME280;42916;54.346;18.562;2022-10-17T08:58:54;101434.55;;;15.76;95.49
57024;BME280;42916;54.346;18.562;2022-10-17T09:01:47;101431.98;;;15.73;95.68
57024;BME280;42916;54.346;18.562;2022-10-17T09:07:00;101432.94;;;15.78;95.97
57024;BME280;42916;54.346;18.562;2022-10-17T09:09:53;101429.89;;;15.82;95.45
57024;BME280;42916;54.346;18.562;2022-10-17T09:12:31;101434.85;;;15.89;95.47
57024;BME280;42916;54.346;18.562;2022-10-17T09:18:08;101425.45;;;16.08;95.11
57024;BME280;42916;54.346;18.562;2022-10-17T09:20:41;101421.12;;;16.18;95.17
57024;BME280;42916;54.346;18.562;2022-10-17T09:23:20;101421.17;;;16.20;94.46
57024;BME280;42916;54.346;18.562;2022-10-17T09:25:56;101419.14;;;16.19;94.03
57024;BME280;42916;54.346;18.562;2022-10-17T09:28:30;101422.22;;;16.17;93.12
57024;BME280;42916;54.346;18.562;2022-10-17T09:31:04;101421.65;;;16.14;92.90
57024;BME280;42916;54.346;18.562;2022-10-17T09:33:41;101421.34;;;16.17;93.14
57024;BME280;42916;54.346;18.562;2022-10-17T09:36:30;101415.98;;;16.25;93.11
57024;BME280;42916;54.346;18.562;2022-10-17T09:39:05;101416.18;;;16.35;92.99
57024;BME280;42916;54.346;18.562;2022-10-17T09:49:41;101416.77;;;16.60;92.14
57024;BME280;42916;54.346;18.562;2022-10-17T09:52:20;101415.90;;;16.70;92.32
57024;BME280;42916;54.346;18.562;2022-10-17T09:55:21;101426.31;;;16.82;91.98
57024;BME280;42916;54.346;18.562;2022-10-17T09:57:58;101425.91;;;16.92;91.28
57024;BME280;42916;54.346;18.562;2022-10-17T10:05:39;101421.63;;;16.87;89.70
57024;BME280;42916;54.346;18.562;2022-10-17T10:08:18;101416.83;;;16.84;89.73
57024;BME280;42916;54.346;18.562;2022-10-17T10:10:45;101414.16;;;16.79;89.38
57024;BME280;42916;54.346;18.562;2022-10-17T10:15:43;101417.27;;;16.75;89.68
57024;BME280;42916;54.346;18.562;2022-10-17T10:18:28;101415.37;;;16.78;89.91
57024;BME280;42916;54.346;18.562;2022-10-17T10:23:32;101413.92;;;16.69;89.46
57024;BME280;42916;54.346;18.562;2022-10-17T10:26:03;101409.08;;;16.63;89.91
57024;BME280;42916;54.346;18.562;2022-10-17T10:28:34;101403.67;;;16.59;89.90
57024;BME280;42916;54.346;18.562;2022-10-17T10:31:04;101402.41;;;16.59;90.14
57024;BME280;42916;54.346;18.562;2022-10-17T10:33:34;101399.08;;;16.64;90.34
57024;BME280;42916;54.346;18.562;2022-10-17T10:36:05;101402.70;;;16.68;90.53
57024;BME280;42916;54.346;18.562;2022-10-17T10:38:33;101402.18;;;16.79;90.77
57024;BME280;42916;54.346;18.562;2022-10-17T10:41:03;101404.75;;;16.94;90.55
57024;BME280;42916;54.346;18.562;2022-10-17T10:43:41;101404.83;;;17.11;90.56
57024;BME280;42916;54.346;18.562;2022-10-17T10:48:57;101399.98;;;17.36;90.18
57024;BME280;42916;54.346;18.562;2022-10-17T10:51:35;101402.38;;;17.46;89.61
57024;BME280;42916;54.346;18.562;2022-10-17T10:54:17;101394.40;;;17.45;89.03
57024;BME280;42916;54.346;18.562;2022-10-17T10:56:49;101389.94;;;17.46;88.87
57024;BME280;42916;54.346;18.562;2022-10-17T11:04:38;101378.66;;;17.47;89.09
57024;BME280;42916;54.346;18.562;2022-10-17T11:07:23;101371.83;;;17.55;89.29
57024;BME280;42916;54.346;18.562;2022-10-17T11:10:13;101374.44;;;17.68;89.45
57024;BME280;42916;54.346;18.562;2022-10-17T11:13:04;101370.27;;;17.81;88.88
57024;BME280;42916;54.346;18.562;2022-10-17T11:15:46;101373.46;;;17.85;87.88
57024;BME280;42916;54.346;18.562;2022-10-17T11:18:32;101366.67;;;17.83;87.73
57024;BME280;42916;54.346;18.562;2022-10-17T11:26:32;101350.66;;;17.92;88.30
57024;BME280;42916;54.346;18.562;2022-10-17T11:29:03;101342.41;;;18.00;88.28
57024;BME280;42916;54.346;18.562;2022-10-17T11:31:36;101334.70;;;18.15;88.47
57024;BME280;42916;54.346;18.562;2022-10-17T11:34:31;101336.51;;;18.27;88.03
57024;BME280;42916;54.346;18.562;2022-10-17T11:37:32;101341.80;;;18.45;88.12
57024;BME280;42916;54.346;18.562;2022-10-17T11:40:28;101338.77;;;18.68;87.82
57024;BME280;42916;54.346;18.562;2022-10-17T11:43:00;101332.67;;;18.91;87.36
57024;BME280;42916;54.346;18.562;2022-10-17T11:45:33;101325.73;;;19.14;87.06
57024;BME280;42916;54.346;18.562;2022-10-17T11:48:05;101327.09;;;19.28;86.05
57024;BME280;42916;54.346;18.562;2022-10-17T11:50:38;101323.39;;;19.34;85.53
57024;BME280;42916;54.346;18.562;2022-10-17T11:53:16;101319.58;;;19.39;85.18
57024;BME280;42916;54.346;18.562;2022-10-17T11:55:44;101315.75;;;19.47;84.82
57024;BME280;42916;54.346;18.562;2022-10-17T12:04:00;101303.35;;;19.50;83.70
57024;BME280;42916;54.346;18.562;2022-10-17T12:12:25;101309.98;;;19.18;82.77
57024;BME280;42916;54.346;18.562;2022-10-17T12:14:52;101312.27;;;19.09;82.95
57024;BME280;42916;54.346;18.562;2022-10-17T12:17:36;101312.55;;;18.97;82.88
57024;BME280;42916;54.346;18.562;2022-10-17T12:22:59;101307.36;;;18.80;83.51
57024;BME280;42916;54.346;18.562;2022-10-17T12:25:28;101307.27;;;18.83;83.64
57024;BME280;42916;54.346;18.562;2022-10-17T12:30:36;101293.54;;;18.79;83.32
57024;BME280;42916;54.346;18.562;2022-10-17T12:33:21;101292.63;;;18.86;83.87
57024;BME280;42916;54.346;18.562;2022-10-17T12:35:50;101286.23;;;18.92;83.57
57024;BME280;42916;54.346;18.562;2022-10-17T12:38:36;101284.07;;;18.93;83.73
57024;BME280;42916;54.346;18.562;2022-10-17T12:41:04;101282.80;;;19.04;83.83
57024;BME280;42916;54.346;18.562;2022-10-17T12:43:36;101277.88;;;19.22;83.79
57024;BME280;42916;54.346;18.562;2022-10-17T12:46:04;101263.12;;;19.53;83.81
57024;BME280;42916;54.346;18.562;2022-10-17T12:51:14;101246.92;;;20.33;82.94
57024;BME280;42916;54.346;18.562;2022-10-17T12:59:20;101230.45;;;20.90;79.41
57024;BME280;42916;54.346;18.562;2022-10-17T13:01:52;101233.59;;;21.00;79.09
57024;BME280;42916;54.346;18.562;2022-10-17T13:04:21;101234.73;;;21.02;78.19
57024;BME280;42916;54.346;18.562;2022-10-17T13:06:52;101222.11;;;20.86;77.05
57024;BME280;42916;54.346;18.562;2022-10-17T13:09:24;101212.77;;;20.59;76.32
57024;BME280;42916;54.346;18.562;2022-10-17T13:11:52;101213.86;;;20.37;76.99
57024;BME280;42916;54.346;18.562;2022-10-17T13:14:20;101219.88;;;20.30;77.68
57024;BME280;42916;54.346;18.562;2022-10-17T13:19:24;101217.44;;;20.35;78.18
57024;BME280;42916;54.346;18.562;2022-10-17T13:21:55;101214.77;;;20.52;78.27
57024;BME280;42916;54.346;18.562;2022-10-17T13:24:34;101209.33;;;20.68;77.91
57024;BME280;42916;54.346;18.562;2022-10-17T13:27:02;101204.99;;;20.81;77.48
57024;BME280;42916;54.346;18.562;2022-10-17T13:29:29;101204.48;;;20.97;77.78
57024;BME280;42916;54.346;18.562;2022-10-17T13:31:59;101210.65;;;21.19;77.78
57024;BME280;42916;54.346;18.562;2022-10-17T13:34:31;101209.40;;;21.29;77.25
57024;BME280;42916;54.346;18.562;2022-10-17T13:37:05;101203.77;;;21.34;76.43
57024;BME280;42916;54.346;18.562;2022-10-17T13:39:36;101200.52;;;21.27;76.47
57024;BME280;42916;54.346;18.562;2022-10-17T13:42:05;101196.45;;;21.33;75.68
57024;BME280;42916;54.346;18.562;2022-10-17T13:44:36;101185.36;;;21.34;75.60
57024;BME280;42916;54.346;18.562;2022-10-17T13:47:38;101179.02;;;21.38;75.55
57024;BME280;42916;54.346;18.562;2022-10-17T13:50:05;101169.69;;;21.47;75.78
57024;BME280;42916;54.346;18.562;2022-10-17T13:52:33;101169.83;;;21.58;75.76
57024;BME280;42916;54.346;18.562;2022-10-17T13:55:08;101169.05;;;21.63;74.78
57024;BME280;42916;54.346;18.562;2022-10-17T13:57:36;101158.42;;;21.53;74.04
57024;BME280;42916;54.346;18.562;2022-10-17T14:00:05;101148.27;;;21.50;74.21
57024;BME280;42916;54.346;18.562;2022-10-17T14:02:39;101143.94;;;21.43;74.20
57024;BME280;42916;54.346;18.562;2022-10-17T14:10:20;101133.87;;;20.90;74.28
57024;BME280;42916;54.346;18.562;2022-10-17T14:12:50;101138.34;;;20.64;74.29
57024;BME280;42916;54.346;18.562;2022-10-17T14:15:18;101140.77;;;20.39;74.92
57024;BME280;42916;54.346;18.562;2022-10-17T14:17:45;101140.38;;;20.16;75.48
57024;BME280;42916;54.346;18.562;2022-10-17T14:20:20;101136.39;;;19.94;76.28
57024;BME280;42916;54.346;18.562;2022-10-17T14:22:48;101134.21;;;19.80;76.73
57024;BME280;42916;54.346;18.562;2022-10-17T14:25:36;101138.85;;;19.63;77.52
57024;BME280;42916;54.346;18.562;2022-10-17T14:35:15;101123.06;;;19.25;80.41
57024;BME280;42916;54.346;18.562;2022-10-17T14:38:19;101119.05;;;19.14;81.20
57024;BME280;42916;54.346;18.562;2022-10-17T14:40:52;101120.87;;;19.11;81.80
57024;BME280;42916;54.346;18.562;2022-10-17T14:43:21;101119.02;;;19.05;81.98
57024;BME280;42916;54.346;18.562;2022-10-17T14:45:49;101117.70;;;18.98;82.53
57024;BME280;42916;54.346;18.562;2022-10-17T14:48:20;101119.58;;;18.94;83.07
57024;BME280;42916;54.346;18.562;2022-10-17T14:51:14;101117.16;;;18.89;83.50